sensor_id;sensor_type;location;lat;lon;timestamp;pressure;altitude;pressure_sealevel;temperature;humidity
55610;BME280;41486;52.502;13.486;2023-02-28T00:01:28;102577.47;;;1.60;94.02
55610;BME280;41486;52.502;13.486;2023-02-28T00:03:56;102571.31;;;1.75;93.65
55610;BME280;41486;52.502;13.486;2023-02-28T00:06:24;102571.34;;;1.68;93.58
55610;BME280;41486;52.502;13.486;2023-02-28T00:08:52;102573.22;;;1.52;93.34
55610;BME280;41486;52.502;13.486;2023-02-28T00:11:21;102571.47;;;1.53;93.78
55610;BME280;41486;52.502;13.486;2023-02-28T00:13:50;102580.09;;;1.60;93.98
55610;BME280;41486;52.502;13.486;2023-02-28T00:16:20;102571.47;;;1.53;94.50
55610;BME280;41486;52.502;13.486;2023-02-28T00:18:49;102581.78;;;1.65;94.29
55610;BME280;41486;52.502;13.486;2023-02-28T00:21:18;102582.56;;;1.75;94.20
55610;BME280;41486;52.502;13.486;2023-02-28T00:23:47;102572.94;;;1.88;94.17
55610;BME280;41486;52.502;13.486;2023-02-28T00:26:15;102575.66;;;1.69;95.28
55610;BME280;41486;52.502;13.486;2023-02-28T00:28:45;102576.78;;;1.39;95.36
55610;BME280;41486;52.502;13.486;2023-02-28T00:31:15;102574.84;;;1.66;94.58
55610;BME280;41486;52.502;13.486;2023-02-28T00:33:44;102576.78;;;1.37;94.66
55610;BME280;41486;52.502;13.486;2023-02-28T00:36:14;102579.38;;;1.39;96.82
55610;BME280;41486;52.502;13.486;2023-02-28T00:38:42;102575.66;;;1.72;95.71
55610;BME280;41486;52.502;13.486;2023-02-28T00:41:10;102573.38;;;1.31;96.17
55610;BME280;41486;52.502;13.486;2023-02-28T00:43:39;102578.50;;;1.37;97.48
55610;BME280;41486;52.502;13.486;2023-02-28T00:46:07;102574.97;;;1.52;96.11
55610;BME280;41486;52.502;13.486;2023-02-28T00:48:36;102590.63;;;1.38;96.47
55610;BME280;41486;52.502;13.486;2023-02-28T00:51:05;102576.03;;;1.21;96.89
55610;BME280;41486;52.502;13.486;2023-02-28T00:53:33;102575.84;;;1.48;96.64
55610;BME280;41486;52.502;13.486;2023-02-28T00:56:01;102579.44;;;1.26;96.86
55610;BME280;41486;52.502;13.486;2023-02-28T00:58:31;102581.25;;;1.09;98.27
55610;BME280;41486;52.502;13.486;2023-02-28T01:00:59;102581.28;;;1.07;98.99
55610;BME280;41486;52.502;13.486;2023-02-28T01:03:28;102579.47;;;1.23;99.53
55610;BME280;41486;52.502;13.486;2023-02-28T01:05:56;102582.88;;;1.33;98.34
55610;BME280;41486;52.502;13.486;2023-02-28T01:08:25;102576.94;;;1.14;98.46
55610;BME280;41486;52.502;13.486;2023-02-28T01:10:53;102582.09;;;1.13;99.26
55610;BME280;41486;52.502;13.486;2023-02-28T01:13:22;102577.78;;;1.13;99.68
55610;BME280;41486;52.502;13.486;2023-02-28T01:15:52;102571.69;;;1.22;98.34
55610;BME280;41486;52.502;13.486;2023-02-28T01:18:22;102577.00;;;0.99;99.86
55610;BME280;41486;52.502;13.486;2023-02-28T01:20:53;102567.53;;;0.91;100.00
55610;BME280;41486;52.502;13.486;2023-02-28T01:23:23;102570.88;;;1.14;99.95
55610;BME280;41486;52.502;13.486;2023-02-28T01:25:52;102562.34;;;0.96;100.00
55610;BME280;41486;52.502;13.486;2023-02-28T01:28:21;102570.94;;;1.06;100.00
55610;BME280;41486;52.502;13.486;2023-02-28T01:30:49;102560.56;;;1.03;100.00
55610;BME280;41486;52.502;13.486;2023-02-28T01:33:18;102565.81;;;0.90;100.00
55610;BME280;41486;52.502;13.486;2023-02-28T01:35:47;102563.31;;;0.70;100.00
55610;BME280;41486;52.502;13.486;2023-02-28T01:38:16;102565.94;;;0.61;100.00
55610;BME280;41486;52.502;13.486;2023-02-28T01:40:49;102569.41;;;0.55;100.00
55610;BME280;41486;52.502;13.486;2023-02-28T01:43:22;102564.97;;;0.88;100.00
55610;BME280;41486;52.502;13.486;2023-02-28T01:45:52;102561.63;;;0.52;100.00
55610;BME280;41486;52.502;13.486;2023-02-28T01:48:24;102566.88;;;0.43;100.00
55610;BME280;41486;52.502;13.486;2023-02-28T01:50:55;102559.13;;;0.30;100.00
55610;BME280;41486;52.502;13.486;2023-02-28T01:53:29;102560.72;;;0.70;100.00
55610;BME280;41486;52.502;13.486;2023-02-28T01:56:00;102565.16;;;0.42;100.00
55610;BME280;41486;52.502;13.486;2023-02-28T01:58:31;102566.91;;;0.20;100.00
55610;BME280;41486;52.502;13.486;2023-02-28T02:00:59;102566.84;;;0.44;100.00
55610;BME280;41486;52.502;13.486;2023-02-28T02:03:30;102563.44;;;0.27;100.00
55610;BME280;41486;52.502;13.486;2023-02-28T02:05:58;102566.00;;;0.33;100.00
55610;BME280;41486;52.502;13.486;2023-02-28T02:08:28;102561.75;;;0.15;100.00
55610;BME280;41486;52.502;13.486;2023-02-28T02:10:59;102560.91;;;0.04;100.00
55610;BME280;41486;52.502;13.486;2023-02-28T02:13:38;102557.44;;;0.15;100.00
55610;BME280;41486;52.502;13.486;2023-02-28T02:16:22;102560.91;;;-0.03;100.00
55610;BME280;41486;52.502;13.486;2023-02-28T02:18:53;102557.41;;;0.25;100.00
55610;BME280;41486;52.502;13.486;2023-02-28T02:25:09;102560.81;;;0.38;100.00
55610;BME280;41486;52.502;13.486;2023-02-28T02:28:04;102556.59;;;-0.19;100.00
55610;BME280;41486;52.502;13.486;2023-02-28T02:34:06;102554.03;;;-0.22;100.00
55610;BME280;41486;52.502;13.486;2023-02-28T02:36:45;102563.50;;;-0.07;100.00
55610;BME280;41486;52.502;13.486;2023-02-28T02:39:19;102566.94;;;-0.39;100.00
55610;BME280;41486;52.502;13.486;2023-02-28T02:41:52;102563.50;;;-0.57;100.00
55610;BME280;41486;52.502;13.486;2023-02-28T02:44:24;102564.38;;;-0.33;100.00
55610;BME280;41486;52.502;13.486;2023-02-28T02:46:58;102561.78;;;-0.14;100.00
55610;BME280;41486;52.502;13.486;2023-02-28T02:49:35;102554.88;;;-0.16;100.00
55610;BME280;41486;52.502;13.486;2023-02-28T02:52:09;102554.03;;;-0.27;100.00
55610;BME280;41486;52.502;13.486;2023-02-28T02:54:42;102562.63;;;-0.51;100.00
55610;BME280;41486;52.502;13.486;2023-02-28T02:57:14;102562.63;;;-0.64;100.00
55610;BME280;41486;52.502;13.486;2023-02-28T02:59:44;102572.09;;;-0.66;100.00
55610;BME280;41486;52.502;13.486;2023-02-28T03:02:14;102561.78;;;-0.47;100.00
55610;BME280;41486;52.502;13.486;2023-02-28T03:04:50;102561.78;;;-0.35;100.00
55610;BME280;41486;52.502;13.486;2023-02-28T03:07:21;102565.22;;;-0.54;100.00
55610;BME280;41486;52.502;13.486;2023-02-28T03:09:51;102559.19;;;-0.56;100.00
55610;BME280;41486;52.502;13.486;2023-02-28T03:12:20;102573.84;;;-0.48;100.00
55610;BME280;41486;52.502;13.486;2023-02-28T03:14:55;102559.19;;;-0.50;100.00
55610;BME280;41486;52.502;13.486;2023-02-28T03:17:54;102560.91;;;-0.51;100.00
55610;BME280;41486;52.502;13.486;2023-02-28T03:20:39;102568.66;;;-0.54;100.00
55610;BME280;41486;52.502;13.486;2023-02-28T03:23:14;102573.00;;;-0.39;100.00
55610;BME280;41486;52.502;13.486;2023-02-28T03:25:54;102569.53;;;-0.50;100.00
55610;BME280;41486;52.502;13.486;2023-02-28T03:28:31;102576.41;;;-0.65;100.00
55610;BME280;41486;52.502;13.486;2023-02-28T03:31:06;102572.09;;;-0.73;100.00
55610;BME280;41486;52.502;13.486;2023-02-28T03:33:39;102574.66;;;-0.76;100.00
55610;BME280;41486;52.502;13.486;2023-02-28T03:36:13;102580.69;;;-0.85;100.00
55610;BME280;41486;52.502;13.486;2023-02-28T03:38:45;102576.41;;;-0.77;100.00
55610;BME280;41486;52.502;13.486;2023-02-28T03:41:16;102571.22;;;-0.75;100.00
55610;BME280;41486;52.502;13.486;2023-02-28T03:43:49;102584.16;;;-0.75;100.00
55610;BME280;41486;52.502;13.486;2023-02-28T03:46:22;102578.13;;;-0.73;100.00
55610;BME280;41486;52.502;13.486;2023-02-28T03:48:56;102586.72;;;-0.80;100.00
55610;BME280;41486;52.502;13.486;2023-02-28T03:51:31;102579.81;;;-0.89;100.00
55610;BME280;41486;52.502;13.486;2023-02-28T03:54:05;102574.59;;;-1.03;100.00
55610;BME280;41486;52.502;13.486;2023-02-28T03:56:39;102579.84;;;-0.78;100.00
55610;BME280;41486;52.502;13.486;2023-02-28T03:59:13;102579.88;;;-0.62;100.00
55610;BME280;41486;52.502;13.486;2023-02-28T04:01:45;102575.50;;;-0.84;100.00
55610;BME280;41486;52.502;13.486;2023-02-28T04:04:14;102578.06;;;-0.91;100.00
55610;BME280;41486;52.502;13.486;2023-02-28T04:06:49;102588.34;;;-1.15;100.00
55610;BME280;41486;52.502;13.486;2023-02-28T04:09:20;102580.59;;;-1.15;100.00
55610;BME280;41486;52.502;13.486;2023-02-28T04:11:52;102585.81;;;-0.93;100.00
55610;BME280;41486;52.502;13.486;2023-02-28T04:14:21;102583.16;;;-1.18;100.00
55610;BME280;41486;52.502;13.486;2023-02-28T04:16:49;102589.13;;;-1.30;100.00
55610;BME280;41486;52.502;13.486;2023-02-28T04:19:18;102584.84;;;-1.28;100.00
55610;BME280;41486;52.502;13.486;2023-02-28T04:21:50;102584.84;;;-1.28;100.00
55610;BME280;41486;52.502;13.486;2023-02-28T04:24:20;102581.34;;;-1.36;100.00
55610;BME280;41486;52.502;13.486;2023-02-28T04:26:51;102589.09;;;-1.40;100.00
55610;BME280;41486;52.502;13.486;2023-02-28T04:29:21;102593.38;;;-1.44;100.00
55610;BME280;41486;52.502;13.486;2023-02-28T04:31:50;102589.91;;;-1.49;100.00
55610;BME280;41486;52.502;13.486;2023-02-28T04:34:20;102589.88;;;-1.51;100.00
55610;BME280;41486;52.502;13.486;2023-02-28T04:36:50;102588.22;;;-1.41;100.00
55610;BME280;41486;52.502;13.486;2023-02-28T04:39:38;102585.63;;;-1.44;100.00
55610;BME280;41486;52.502;13.486;2023-02-28T04:42:07;102592.53;;;-1.41;100.00
55610;BME280;41486;52.502;13.486;2023-02-28T04:44:35;102593.31;;;-1.56;100.00
55610;BME280;41486;52.502;13.486;2023-02-28T04:47:03;102594.31;;;-1.31;100.00
55610;BME280;41486;52.502;13.486;2023-02-28T04:49:31;102595.06;;;-1.49;100.00
55610;BME280;41486;52.502;13.486;2023-02-28T04:52:01;102593.28;;;-1.58;100.00
55610;BME280;41486;52.502;13.486;2023-02-28T04:54:29;102591.53;;;-1.68;100.00
55610;BME280;41486;52.502;13.486;2023-02-28T04:56:56;102594.16;;;-1.57;100.00
55610;BME280;41486;52.502;13.486;2023-02-28T04:59:24;102595.84;;;-1.66;100.00
55610;BME280;41486;52.502;13.486;2023-02-28T05:01:52;102595.81;;;-1.67;100.00
55610;BME280;41486;52.502;13.486;2023-02-28T05:04:20;102602.72;;;-1.62;100.00
55610;BME280;41486;52.502;13.486;2023-02-28T05:06:48;102606.22;;;-1.55;100.00
55610;BME280;41486;52.502;13.486;2023-02-28T05:09:18;102601.88;;;-1.62;100.00
55610;BME280;41486;52.502;13.486;2023-02-28T05:11:46;102601.84;;;-1.67;100.00
55610;BME280;41486;52.502;13.486;2023-02-28T05:14:14;102613.88;;;-1.67;100.00
55610;BME280;41486;52.502;13.486;2023-02-28T05:16:42;102607.00;;;-1.65;100.00
55610;BME280;41486;52.502;13.486;2023-02-28T05:19:10;102610.44;;;-1.66;100.00
55610;BME280;41486;52.502;13.486;2023-02-28T05:21:39;102606.16;;;-1.66;100.00
55610;BME280;41486;52.502;13.486;2023-02-28T05:24:10;102608.69;;;-1.75;100.00
55610;BME280;41486;52.502;13.486;2023-02-28T05:26:41;102605.25;;;-1.74;100.00
55610;BME280;41486;52.502;13.486;2023-02-28T05:29:10;102611.22;;;-1.80;100.00
55610;BME280;41486;52.502;13.486;2023-02-28T05:31:38;102611.38;;;-1.58;100.00
55610;BME280;41486;52.502;13.486;2023-02-28T05:34:06;102611.41;;;-1.49;100.00
55610;BME280;41486;52.502;13.486;2023-02-28T05:36:36;102613.00;;;-1.74;100.00
55610;BME280;41486;52.502;13.486;2023-02-28T05:39:05;102616.31;;;-1.89;100.00
55610;BME280;41486;52.502;13.486;2023-02-28T05:41:33;102618.09;;;-1.82;100.00
55610;BME280;41486;52.502;13.486;2023-02-28T05:44:03;102619.78;;;-1.85;100.00
55610;BME280;41486;52.502;13.486;2023-02-28T05:46:31;102623.22;;;-1.86;100.00
55610;BME280;41486;52.502;13.486;2023-02-28T05:48:59;102620.63;;;-1.89;100.00
55610;BME280;41486;52.502;13.486;2023-02-28T05:51:27;102624.97;;;-1.81;100.00
55610;BME280;41486;52.502;13.486;2023-02-28T05:53:59;102627.50;;;-1.93;100.00
55610;BME280;41486;52.502;13.486;2023-02-28T05:56:28;102628.28;;;-1.97;100.00
55610;BME280;41486;52.502;13.486;2023-02-28T05:59:24;102626.53;;;-2.04;100.00
55610;BME280;41486;52.502;13.486;2023-02-28T06:01:52;102636.94;;;-1.95;100.00
55610;BME280;41486;52.502;13.486;2023-02-28T06:04:21;102628.28;;;-1.97;100.00
55610;BME280;41486;52.502;13.486;2023-02-28T06:06:57;102624.06;;;-1.87;100.00
55610;BME280;41486;52.502;13.486;2023-02-28T06:09:28;102628.38;;;-1.88;100.00
55610;BME280;41486;52.502;13.486;2023-02-28T06:11:58;102627.53;;;-1.84;100.00
55610;BME280;41486;52.502;13.486;2023-02-28T06:14:27;102629.25;;;-1.84;100.00
55610;BME280;41486;52.502;13.486;2023-02-28T06:16:55;102630.97;;;-1.89;100.00
55610;BME280;41486;52.502;13.486;2023-02-28T06:19:24;102634.41;;;-1.86;100.00
55610;BME280;41486;52.502;13.486;2023-02-28T06:21:54;102638.69;;;-1.88;100.00
55610;BME280;41486;52.502;13.486;2023-02-28T06:24:23;102639.59;;;-1.86;100.00
55610;BME280;41486;52.502;13.486;2023-02-28T06:26:51;102636.13;;;-1.89;100.00
55610;BME280;41486;52.502;13.486;2023-02-28T06:29:19;102643.06;;;-1.82;100.00
55610;BME280;41486;52.502;13.486;2023-02-28T06:31:51;102642.16;;;-1.84;100.00
55610;BME280;41486;52.502;13.486;2023-02-28T06:34:19;102651.72;;;-1.74;100.00
55610;BME280;41486;52.502;13.486;2023-02-28T06:36:52;102651.69;;;-1.76;100.00
55610;BME280;41486;52.502;13.486;2023-02-28T06:39:20;102643.94;;;-1.77;100.00
55610;BME280;41486;52.502;13.486;2023-02-28T06:41:48;102659.47;;;-1.72;100.00
55610;BME280;41486;52.502;13.486;2023-02-28T06:44:22;102661.28;;;-1.61;100.00
55610;BME280;41486;52.502;13.486;2023-02-28T06:46:52;102663.88;;;-1.56;100.00
55610;BME280;41486;52.502;13.486;2023-02-28T06:49:20;102672.47;;;-1.55;100.00
55610;BME280;41486;52.502;13.486;2023-02-28T06:51:48;102658.75;;;-1.51;100.00
55610;BME280;41486;52.502;13.486;2023-02-28T06:54:16;102669.97;;;-1.46;100.00
55610;BME280;41486;52.502;13.486;2023-02-28T06:56:44;102665.72;;;-1.41;100.00
55610;BME280;41486;52.502;13.486;2023-02-28T06:59:13;102671.78;;;-1.31;100.00
55610;BME280;41486;52.502;13.486;2023-02-28T07:01:41;102667.53;;;-1.24;100.00
55610;BME280;41486;52.502;13.486;2023-02-28T07:04:10;102671.03;;;-1.15;100.00
55610;BME280;41486;52.502;13.486;2023-02-28T07:06:48;102678.81;;;-1.05;100.00
55610;BME280;41486;52.502;13.486;2023-02-28T07:09:16;102676.25;;;-0.98;100.00
55610;BME280;41486;52.502;13.486;2023-02-28T07:11:45;102670.28;;;-0.86;100.00
55610;BME280;41486;52.502;13.486;2023-02-28T07:14:13;102672.03;;;-0.82;100.00
55610;BME280;41486;52.502;13.486;2023-02-28T07:16:41;102670.31;;;-0.76;100.00
55610;BME280;41486;52.502;13.486;2023-02-28T07:19:11;102672.09;;;-0.65;100.00
55610;BME280;41486;52.502;13.486;2023-02-28T07:21:39;102676.41;;;-0.57;100.00
55610;BME280;41486;52.502;13.486;2023-02-28T07:24:07;102672.13;;;-0.55;100.00
55610;BME280;41486;52.502;13.486;2023-02-28T07:26:35;102673.91;;;-0.29;100.00
55610;BME280;41486;52.502;13.486;2023-02-28T07:29:04;102678.22;;;-0.33;100.00
55610;BME280;41486;52.502;13.486;2023-02-28T07:31:33;102679.09;;;-0.29;100.00
55610;BME280;41486;52.502;13.486;2023-02-28T07:34:01;102675.66;;;-0.13;100.00
55610;BME280;41486;52.502;13.486;2023-02-28T07:36:31;102690.34;;;0.04;100.00
55610;BME280;41486;52.502;13.486;2023-02-28T07:38:59;102685.13;;;0.59;100.00
55610;BME280;41486;52.502;13.486;2023-02-28T07:41:27;102681.06;;;5.09;100.00
55610;BME280;41486;52.502;13.486;2023-02-28T07:43:57;102684.34;;;5.60;100.00
55610;BME280;41486;52.502;13.486;2023-02-28T07:46:26;102683.53;;;2.99;97.23
55610;BME280;41486;52.502;13.486;2023-02-28T07:49:03;102686.78;;;2.34;99.43
55610;BME280;41486;52.502;13.486;2023-02-28T07:51:33;102674.22;;;1.86;96.22
55610;BME280;41486;52.502;13.486;2023-02-28T07:54:02;102684.94;;;1.26;92.52
55610;BME280;41486;52.502;13.486;2023-02-28T07:56:30;102689.34;;;1.04;92.64
55610;BME280;41486;52.502;13.486;2023-02-28T07:58:58;102689.19;;;1.39;93.43
55610;BME280;41486;52.502;13.486;2023-02-28T08:01:28;102683.03;;;1.61;91.46
55610;BME280;41486;52.502;13.486;2023-02-28T08:03:56;102686.66;;;1.24;82.19
55610;BME280;41486;52.502;13.486;2023-02-28T08:06:25;102680.63;;;1.17;79.94
55610;BME280;41486;52.502;13.486;2023-02-28T08:08:54;102685.84;;;1.19;78.91
55610;BME280;41486;52.502;13.486;2023-02-28T08:11:23;102686.66;;;1.24;78.60
55610;BME280;41486;52.502;13.486;2023-02-28T08:13:51;102694.41;;;1.32;76.33
55610;BME280;41486;52.502;13.486;2023-02-28T08:16:19;102699.56;;;1.39;75.31
55610;BME280;41486;52.502;13.486;2023-02-28T08:18:49;102687.44;;;1.38;68.53
55610;BME280;41486;52.502;13.486;2023-02-28T08:21:23;102684.78;;;1.52;70.66
55610;BME280;41486;52.502;13.486;2023-02-28T08:23:51;102687.34;;;1.62;70.09
55610;BME280;41486;52.502;13.486;2023-02-28T08:26:21;102690.72;;;1.71;68.60
55610;BME280;41486;52.502;13.486;2023-02-28T08:28:49;102688.94;;;1.83;70.13
55610;BME280;41486;52.502;13.486;2023-02-28T08:31:18;102693.28;;;1.84;65.75
55610;BME280;41486;52.502;13.486;2023-02-28T08:33:46;102695.00;;;1.82;66.50
55610;BME280;41486;52.502;13.486;2023-02-28T08:36:17;102694.16;;;1.78;62.80
55610;BME280;41486;52.502;13.486;2023-02-28T08:38:46;102696.66;;;1.94;64.51
55610;BME280;41486;52.502;13.486;2023-02-28T08:41:14;102690.53;;;2.04;62.11
55610;BME280;41486;52.502;13.486;2023-02-28T08:43:43;102688.72;;;2.14;63.94
55610;BME280;41486;52.502;13.486;2023-02-28T08:46:12;102691.25;;;2.23;62.28
55610;BME280;41486;52.502;13.486;2023-02-28T08:48:41;102696.53;;;2.12;60.15
55610;BME280;41486;52.502;13.486;2023-02-28T08:51:12;102695.59;;;2.18;61.53
55610;BME280;41486;52.502;13.486;2023-02-28T08:53:40;102693.84;;;2.20;60.05
55610;BME280;41486;52.502;13.486;2023-02-28T08:56:10;102700.66;;;2.36;60.41
55610;BME280;41486;52.502;13.486;2023-02-28T08:58:44;102691.06;;;2.42;58.42
55610;BME280;41486;52.502;13.486;2023-02-28T09:01:14;102694.50;;;2.47;56.77
55610;BME280;41486;52.502;13.486;2023-02-28T09:03:43;102697.88;;;2.57;57.26
55610;BME280;41486;52.502;13.486;2023-02-28T09:06:13;102697.88;;;2.53;57.14
55610;BME280;41486;52.502;13.486;2023-02-28T09:08:41;102696.13;;;2.56;56.67
55610;BME280;41486;52.502;13.486;2023-02-28T09:11:10;102701.31;;;2.59;58.33
55610;BME280;41486;52.502;13.486;2023-02-28T09:13:38;102706.56;;;2.54;56.43
55610;BME280;41486;52.502;13.486;2023-02-28T09:16:11;102697.84;;;2.60;57.26
55610;BME280;41486;52.502;13.486;2023-02-28T09:18:40;102701.13;;;2.79;58.47
55610;BME280;41486;52.502;13.486;2023-02-28T09:21:10;102698.50;;;2.79;53.83
55610;BME280;41486;52.502;13.486;2023-02-28T09:23:41;102693.13;;;2.93;54.15
55610;BME280;41486;52.502;13.486;2023-02-28T09:26:13;102691.38;;;2.95;55.44
55610;BME280;41486;52.502;13.486;2023-02-28T09:28:41;102695.75;;;2.93;54.38
55610;BME280;41486;52.502;13.486;2023-02-28T09:31:15;102696.50;;;3.03;53.70
55610;BME280;41486;52.502;13.486;2023-02-28T09:33:48;102694.72;;;3.05;53.02
55610;BME280;41486;52.502;13.486;2023-02-28T09:36:16;102691.25;;;3.07;54.93
55610;BME280;41486;52.502;13.486;2023-02-28T09:38:44;102698.19;;;3.07;54.15
55610;BME280;41486;52.502;13.486;2023-02-28T09:41:16;102693.09;;;2.99;53.38
55610;BME280;41486;52.502;13.486;2023-02-28T09:43:47;102697.38;;;3.02;53.37
55610;BME280;41486;52.502;13.486;2023-02-28T09:46:32;102701.44;;;3.24;52.64
55610;BME280;41486;52.502;13.486;2023-02-28T09:49:02;102702.41;;;3.17;52.66
55610;BME280;41486;52.502;13.486;2023-02-28T09:51:43;102699.75;;;3.22;52.22
55610;BME280;41486;52.502;13.486;2023-02-28T09:54:16;102697.19;;;3.19;51.65
55610;BME280;41486;52.502;13.486;2023-02-28T09:56:49;102703.91;;;3.35;53.25
55610;BME280;41486;52.502;13.486;2023-02-28T09:59:29;102696.72;;;3.56;52.59
55610;BME280;41486;52.502;13.486;2023-02-28T10:02:07;102694.09;;;3.57;53.25
55610;BME280;41486;52.502;13.486;2023-02-28T10:04:45;102707.03;;;3.62;52.13
55610;BME280;41486;52.502;13.486;2023-02-28T10:07:24;102706.44;;;3.41;52.23
55610;BME280;41486;52.502;13.486;2023-02-28T10:09:59;102711.59;;;3.47;51.06
55610;BME280;41486;52.502;13.486;2023-02-28T10:12:31;102705.28;;;3.64;51.38
55610;BME280;41486;52.502;13.486;2023-02-28T10:15:01;102699.16;;;3.67;51.80
55610;BME280;41486;52.502;13.486;2023-02-28T10:17:37;102701.72;;;3.71;51.12
55610;BME280;41486;52.502;13.486;2023-02-28T10:20:22;102697.16;;;3.86;51.07
55610;BME280;41486;52.502;13.486;2023-02-28T10:23:04;102705.69;;;3.95;51.80
55610;BME280;41486;52.502;13.486;2023-02-28T10:25:37;102698.06;;;3.82;50.78
55610;BME280;41486;52.502;13.486;2023-02-28T10:28:10;102697.91;;;3.94;51.63
55610;BME280;41486;52.502;13.486;2023-02-28T10:30:42;102702.78;;;4.14;51.38
55610;BME280;41486;52.502;13.486;2023-02-28T10:33:27;102694.91;;;4.17;50.44
55610;BME280;41486;52.502;13.486;2023-02-28T10:35:56;102701.91;;;4.14;49.71
55610;BME280;41486;52.502;13.486;2023-02-28T10:38:27;102699.00;;;3.77;50.63
55610;BME280;41486;52.502;13.486;2023-02-28T10:41:04;102701.84;;;4.20;50.43
55610;BME280;41486;52.502;13.486;2023-02-28T10:43:32;102702.66;;;3.66;48.67
55610;BME280;41486;52.502;13.486;2023-02-28T10:46:03;102699.31;;;4.14;49.83
55610;BME280;41486;52.502;13.486;2023-02-28T10:48:38;102698.16;;;4.32;50.23
55610;BME280;41486;52.502;13.486;2023-02-28T10:51:10;102697.31;;;4.30;49.62
55610;BME280;41486;52.502;13.486;2023-02-28T10:53:47;102698.09;;;4.36;50.12
55610;BME280;41486;52.502;13.486;2023-02-28T10:56:27;102690.50;;;4.22;50.35
55610;BME280;41486;52.502;13.486;2023-02-28T10:58:59;102687.41;;;3.99;50.64
55610;BME280;41486;52.502;13.486;2023-02-28T11:01:36;102681.53;;;4.39;48.51
55610;BME280;41486;52.502;13.486;2023-02-28T11:04:20;102672.50;;;4.07;50.20
55610;BME280;41486;52.502;13.486;2023-02-28T11:07:02;102682.28;;;4.44;50.94
55610;BME280;41486;52.502;13.486;2023-02-28T11:09:33;102669.06;;;4.55;51.03
55610;BME280;41486;52.502;13.486;2023-02-28T11:12:05;102669.53;;;4.29;51.12
55610;BME280;41486;52.502;13.486;2023-02-28T11:14:39;102662.69;;;4.23;50.13
55610;BME280;41486;52.502;13.486;2023-02-28T11:17:17;102658.41;;;4.67;50.40
55610;BME280;41486;52.502;13.486;2023-02-28T11:19:52;102659.84;;;4.82;49.85
55610;BME280;41486;52.502;13.486;2023-02-28T11:22:23;102653.84;;;4.79;49.32
55610;BME280;41486;52.502;13.486;2023-02-28T11:24:57;102652.84;;;4.84;49.34
55610;BME280;41486;52.502;13.486;2023-02-28T11:27:57;102650.38;;;4.78;48.49
55610;BME280;41486;52.502;13.486;2023-02-28T11:30:33;102653.56;;;4.93;48.49
55610;BME280;41486;52.502;13.486;2023-02-28T11:33:20;102655.38;;;4.89;48.80
55610;BME280;41486;52.502;13.486;2023-02-28T11:35:51;102652.16;;;5.18;49.31
55610;BME280;41486;52.502;13.486;2023-02-28T11:38:20;102650.00;;;5.37;48.06
55610;BME280;41486;52.502;13.486;2023-02-28T11:40:59;102651.38;;;5.15;48.49
55610;BME280;41486;52.502;13.486;2023-02-28T11:43:45;102647.56;;;5.30;48.90
55610;BME280;41486;52.502;13.486;2023-02-28T11:46:25;102653.09;;;5.55;48.17
55610;BME280;41486;52.502;13.486;2023-02-28T11:49:01;102650.72;;;5.03;47.86
55610;BME280;41486;52.502;13.486;2023-02-28T11:51:39;102655.81;;;5.10;47.71
55610;BME280;41486;52.502;13.486;2023-02-28T11:54:33;102648.44;;;5.30;48.49
55610;BME280;41486;52.502;13.486;2023-02-28T11:57:20;102652.88;;;5.25;48.14
55610;BME280;41486;52.502;13.486;2023-02-28T12:00:03;102647.31;;;5.80;47.15
55610;BME280;41486;52.502;13.486;2023-02-28T12:02:50;102651.81;;;5.73;47.66
55610;BME280;41486;52.502;13.486;2023-02-28T12:05:29;102649.69;;;6.25;46.54
55610;BME280;41486;52.502;13.486;2023-02-28T12:08:15;102651.97;;;6.05;46.64
55610;BME280;41486;52.502;13.486;2023-02-28T12:10:57;102646.19;;;6.59;47.27
55610;BME280;41486;52.502;13.486;2023-02-28T12:13:39;102651.97;;;7.02;45.66
55610;BME280;41486;52.502;13.486;2023-02-28T12:16:29;102639.44;;;6.82;44.57
55610;BME280;41486;52.502;13.486;2023-02-28T12:19:15;102637.22;;;6.35;45.51
55610;BME280;41486;52.502;13.486;2023-02-28T12:21:55;102631.63;;;6.49;46.01
55610;BME280;41486;52.502;13.486;2023-02-28T12:24:47;102622.97;;;6.47;45.23
55610;BME280;41486;52.502;13.486;2023-02-28T12:27:22;102628.59;;;6.65;44.33
55610;BME280;41486;52.502;13.486;2023-02-28T12:29:58;102624.72;;;6.78;44.09
55610;BME280;41486;52.502;13.486;2023-02-28T12:32:32;102626.34;;;8.46;41.11
55610;BME280;41486;52.502;13.486;2023-02-28T12:35:03;102615.44;;;10.36;37.67
55610;BME280;41486;52.502;13.486;2023-02-28T12:37:36;102611.94;;;10.15;37.00
55610;BME280;41486;52.502;13.486;2023-02-28T12:40:18;102616.44;;;12.20;34.24
55610;BME280;41486;52.502;13.486;2023-02-28T12:42:50;102609.47;;;11.47;34.96
55610;BME280;41486;52.502;13.486;2023-02-28T12:45:21;102606.03;;;11.64;33.23
55610;BME280;41486;52.502;13.486;2023-02-28T12:47:55;102601.06;;;11.02;34.07
55610;BME280;41486;52.502;13.486;2023-02-28T12:50:25;102589.31;;;11.64;34.37
55610;BME280;41486;52.502;13.486;2023-02-28T12:52:57;102582.69;;;11.92;34.44
55610;BME280;41486;52.502;13.486;2023-02-28T12:55:33;102589.19;;;12.02;31.77
55610;BME280;41486;52.502;13.486;2023-02-28T12:58:11;102580.06;;;12.09;33.50
55610;BME280;41486;52.502;13.486;2023-02-28T13:00:54;102575.94;;;12.37;32.60
55610;BME280;41486;52.502;13.486;2023-02-28T13:03:44;102566.47;;;12.99;31.09
55610;BME280;41486;52.502;13.486;2023-02-28T13:06:32;102570.31;;;11.75;32.33
55610;BME280;41486;52.502;13.486;2023-02-28T13:09:10;102562.81;;;13.17;31.93
55610;BME280;41486;52.502;13.486;2023-02-28T13:11:45;102574.22;;;12.20;31.82
55610;BME280;41486;52.502;13.486;2023-02-28T13:14:22;102564.72;;;12.34;30.70